sensor_id;sensor_type;location;lat;lon;timestamp;temperature;humidity
52127;DHT22;38120;53.176;6.614;2023-11-22T00:00:28;3.80;99.90
52127;DHT22;38120;53.176;6.614;2023-11-22T00:02:54;3.80;99.90
52127;DHT22;38120;53.176;6.614;2023-11-22T00:05:19;3.70;99.90
52127;DHT22;38120;53.176;6.614;2023-11-22T00:07:45;3.70;99.90
52127;DHT22;38120;53.176;6.614;2023-11-22T00:10:11;3.60;99.90
52127;DHT22;38120;53.176;6.614;2023-11-22T00:12:37;3.60;99.90
52127;DHT22;38120;53.176;6.614;2023-11-22T00:15:04;3.60;99.90
52127;DHT22;38120;53.176;6.614;2023-11-22T00:17:31;3.60;99.90
52127;DHT22;38120;53.176;6.614;2023-11-22T00:19:58;3.60;99.90
52127;DHT22;38120;53.176;6.614;2023-11-22T00:22:26;3.70;99.90
52127;DHT22;38120;53.176;6.614;2023-11-22T00:24:53;3.50;99.90
52127;DHT22;38120;53.176;6.614;2023-11-22T00:27:19;3.50;99.90
52127;DHT22;38120;53.176;6.614;2023-11-22T00:29:44;3.40;99.90
52127;DHT22;38120;53.176;6.614;2023-11-22T00:32:11;3.40;99.90
52127;DHT22;38120;53.176;6.614;2023-11-22T00:34:37;3.40;99.90
52127;DHT22;38120;53.176;6.614;2023-11-22T00:37:03;3.30;99.90
52127;DHT22;38120;53.176;6.614;2023-11-22T00:39:29;3.40;99.90
52127;DHT22;38120;53.176;6.614;2023-11-22T00:41:54;3.40;99.90
52127;DHT22;38120;53.176;6.614;2023-11-22T00:44:21;3.30;99.90
52127;DHT22;38120;53.176;6.614;2023-11-22T00:46:47;3.30;99.90
52127;DHT22;38120;53.176;6.614;2023-11-22T00:49:12;3.20;99.90
52127;DHT22;38120;53.176;6.614;2023-11-22T00:51:38;3.20;99.90
52127;DHT22;38120;53.176;6.614;2023-11-22T00:54:04;3.30;99.90
52127;DHT22;38120;53.176;6.614;2023-11-22T00:56:30;3.10;99.90
52127;DHT22;38120;53.176;6.614;2023-11-22T00:58:56;3.10;99.90
52127;DHT22;38120;53.176;6.614;2023-11-22T01:01:25;3.00;99.90
52127;DHT22;38120;53.176;6.614;2023-11-22T01:03:51;3.00;99.90
52127;DHT22;38120;53.176;6.614;2023-11-22T01:06:17;3.00;99.90
52127;DHT22;38120;53.176;6.614;2023-11-22T01:08:45;3.00;99.90
52127;DHT22;38120;53.176;6.614;2023-11-22T01:11:13;3.00;99.90
52127;DHT22;38120;53.176;6.614;2023-11-22T01:13:39;3.00;99.90
52127;DHT22;38120;53.176;6.614;2023-11-22T01:16:09;2.90;99.90
52127;DHT22;38120;53.176;6.614;2023-11-22T01:18:35;3.80;99.90
52127;DHT22;38120;53.176;6.614;2023-11-22T01:21:01;2.80;99.90
52127;DHT22;38120;53.176;6.614;2023-11-22T01:23:28;2.80;99.90
52127;DHT22;38120;53.176;6.614;2023-11-22T01:25:54;2.80;99.90
52127;DHT22;38120;53.176;6.614;2023-11-22T01:28:20;3.00;99.90
52127;DHT22;38120;53.176;6.614;2023-11-22T01:30:46;2.80;99.90
52127;DHT22;38120;53.176;6.614;2023-11-22T01:33:12;2.70;99.90
52127;DHT22;38120;53.176;6.614;2023-11-22T01:35:38;2.70;99.90
52127;DHT22;38120;53.176;6.614;2023-11-22T01:38:04;2.60;99.90
52127;DHT22;38120;53.176;6.614;2023-11-22T01:40:30;2.70;99.90
52127;DHT22;38120;53.176;6.614;2023-11-22T01:42:58;2.60;99.90
52127;DHT22;38120;53.176;6.614;2023-11-22T01:45:23;2.60;99.90
52127;DHT22;38120;53.176;6.614;2023-11-22T01:47:50;2.60;99.90
52127;DHT22;38120;53.176;6.614;2023-11-22T01:50:16;2.60;99.90
52127;DHT22;38120;53.176;6.614;2023-11-22T01:52:42;2.50;99.90
52127;DHT22;38120;53.176;6.614;2023-11-22T01:55:09;2.50;99.90
52127;DHT22;38120;53.176;6.614;2023-11-22T01:57:35;2.40;99.90
52127;DHT22;38120;53.176;6.614;2023-11-22T02:00:04;2.40;99.90
52127;DHT22;38120;53.176;6.614;2023-11-22T02:02:34;2.30;99.90
52127;DHT22;38120;53.176;6.614;2023-11-22T02:05:00;2.40;99.90
52127;DHT22;38120;53.176;6.614;2023-11-22T02:07:29;2.70;99.90
52127;DHT22;38120;53.176;6.614;2023-11-22T02:09:57;2.30;99.90
52127;DHT22;38120;53.176;6.614;2023-11-22T02:12:23;2.40;99.90
52127;DHT22;38120;53.176;6.614;2023-11-22T02:14:49;3.50;99.90
52127;DHT22;38120;53.176;6.614;2023-11-22T02:17:15;2.30;99.90
52127;DHT22;38120;53.176;6.614;2023-11-22T02:19:43;2.40;99.90
52127;DHT22;38120;53.176;6.614;2023-11-22T02:22:08;2.40;99.90
52127;DHT22;38120;53.176;6.614;2023-11-22T02:24:34;2.20;99.90
52127;DHT22;38120;53.176;6.614;2023-11-22T02:27:00;2.30;99.90
52127;DHT22;38120;53.176;6.614;2023-11-22T02:29:26;2.20;99.90
52127;DHT22;38120;53.176;6.614;2023-11-22T02:31:52;2.30;99.90
52127;DHT22;38120;53.176;6.614;2023-11-22T02:34:18;2.20;99.90
52127;DHT22;38120;53.176;6.614;2023-11-22T02:36:45;2.30;99.90
52127;DHT22;38120;53.176;6.614;2023-11-22T02:39:10;2.10;99.90
52127;DHT22;38120;53.176;6.614;2023-11-22T02:41:36;2.10;99.90
52127;DHT22;38120;53.176;6.614;2023-11-22T02:44:02;2.10;99.90
52127;DHT22;38120;53.176;6.614;2023-11-22T02:46:28;2.10;99.90
52127;DHT22;38120;53.176;6.614;2023-11-22T02:48:56;2.10;99.90
52127;DHT22;38120;53.176;6.614;2023-11-22T02:51:22;2.10;99.90
52127;DHT22;38120;53.176;6.614;2023-11-22T02:53:48;2.00;99.90
52127;DHT22;38120;53.176;6.614;2023-11-22T02:56:14;2.00;99.90
52127;DHT22;38120;53.176;6.614;2023-11-22T02:58:40;2.00;99.90
52127;DHT22;38120;53.176;6.614;2023-11-22T03:01:06;1.90;99.90
52127;DHT22;38120;53.176;6.614;2023-11-22T03:03:33;1.90;99.90
52127;DHT22;38120;53.176;6.614;2023-11-22T03:05:59;1.80;99.90
52127;DHT22;38120;53.176;6.614;2023-11-22T03:08:25;1.80;99.90
52127;DHT22;38120;53.176;6.614;2023-11-22T03:10:51;1.80;99.90
52127;DHT22;38120;53.176;6.614;2023-11-22T03:13:17;1.70;99.90
52127;DHT22;38120;53.176;6.614;2023-11-22T03:15:44;1.70;99.90
52127;DHT22;38120;53.176;6.614;2023-11-22T03:18:09;1.70;99.90
52127;DHT22;38120;53.176;6.614;2023-11-22T03:20:36;1.70;99.90
52127;DHT22;38120;53.176;6.614;2023-11-22T03:23:03;1.70;99.90
52127;DHT22;38120;53.176;6.614;2023-11-22T03:25:29;1.70;99.90
52127;DHT22;38120;53.176;6.614;2023-11-22T03:27:54;1.70;99.90
52127;DHT22;38120;53.176;6.614;2023-11-22T03:30:21;1.70;99.90
52127;DHT22;38120;53.176;6.614;2023-11-22T03:32:47;1.70;99.90
52127;DHT22;38120;53.176;6.614;2023-11-22T03:35:15;1.70;99.90
52127;DHT22;38120;53.176;6.614;2023-11-22T03:37:42;1.70;99.90
52127;DHT22;38120;53.176;6.614;2023-11-22T03:40:08;1.60;99.90
52127;DHT22;38120;53.176;6.614;2023-11-22T03:42:36;1.70;99.90
52127;DHT22;38120;53.176;6.614;2023-11-22T03:45:03;1.60;99.90
52127;DHT22;38120;53.176;6.614;2023-11-22T03:47:29;1.60;99.90
52127;DHT22;38120;53.176;6.614;2023-11-22T03:49:55;1.60;99.90
52127;DHT22;38120;53.176;6.614;2023-11-22T03:52:21;1.50;99.90
52127;DHT22;38120;53.176;6.614;2023-11-22T03:54:46;1.80;99.90
52127;DHT22;38120;53.176;6.614;2023-11-22T03:57:12;1.40;99.90
52127;DHT22;38120;53.176;6.614;2023-11-22T03:59:37;1.40;99.90
52127;DHT22;38120;53.176;6.614;2023-11-22T04:02:05;1.40;99.90
52127;DHT22;38120;53.176;6.614;2023-11-22T04:04:32;1.50;99.90
52127;DHT22;38120;53.176;6.614;2023-11-22T04:06:58;1.40;99.90
52127;DHT22;38120;53.176;6.614;2023-11-22T04:09:24;1.40;99.90
52127;DHT22;38120;53.176;6.614;2023-11-22T04:11:49;1.40;99.90
52127;DHT22;38120;53.176;6.614;2023-11-22T04:14:15;1.40;99.90
52127;DHT22;38120;53.176;6.614;2023-11-22T04:16:41;1.40;99.90
52127;DHT22;38120;53.176;6.614;2023-11-22T04:19:06;1.40;99.90
52127;DHT22;38120;53.176;6.614;2023-11-22T04:21:32;1.30;99.90
52127;DHT22;38120;53.176;6.614;2023-11-22T04:23:58;1.20;99.90
52127;DHT22;38120;53.176;6.614;2023-11-22T04:26:25;1.20;99.90
52127;DHT22;38120;53.176;6.614;2023-11-22T04:28:52;1.20;99.90
52127;DHT22;38120;53.176;6.614;2023-11-22T04:31:17;1.10;99.90
52127;DHT22;38120;53.176;6.614;2023-11-22T04:33:43;1.20;99.90
52127;DHT22;38120;53.176;6.614;2023-11-22T04:36:09;1.20;99.90
52127;DHT22;38120;53.176;6.614;2023-11-22T04:38:34;1.20;99.90
52127;DHT22;38120;53.176;6.614;2023-11-22T04:41:00;1.20;99.90
52127;DHT22;38120;53.176;6.614;2023-11-22T04:43:26;1.20;99.90
52127;DHT22;38120;53.176;6.614;2023-11-22T04:45:52;1.20;99.90
52127;DHT22;38120;53.176;6.614;2023-11-22T04:48:17;1.10;99.90
52127;DHT22;38120;53.176;6.614;2023-11-22T04:50:46;1.10;99.90
52127;DHT22;38120;53.176;6.614;2023-11-22T04:53:11;1.10;99.90
52127;DHT22;38120;53.176;6.614;2023-11-22T04:55:37;1.10;99.90
52127;DHT22;38120;53.176;6.614;2023-11-22T04:58:03;1.10;99.90
52127;DHT22;38120;53.176;6.614;2023-11-22T05:00:28;1.10;99.90
52127;DHT22;38120;53.176;6.614;2023-11-22T05:02:54;1.20;99.90
52127;DHT22;38120;53.176;6.614;2023-11-22T05:05:20;1.20;99.90
52127;DHT22;38120;53.176;6.614;2023-11-22T05:07:46;1.20;99.90
52127;DHT22;38120;53.176;6.614;2023-11-22T05:10:15;1.20;99.90
52127;DHT22;38120;53.176;6.614;2023-11-22T05:12:42;1.20;99.90
52127;DHT22;38120;53.176;6.614;2023-11-22T05:15:09;1.20;99.90
52127;DHT22;38120;53.176;6.614;2023-11-22T05:17:35;1.20;99.90
52127;DHT22;38120;53.176;6.614;2023-11-22T05:20:01;1.30;99.90
52127;DHT22;38120;53.176;6.614;2023-11-22T05:22:27;1.30;99.90
52127;DHT22;38120;53.176;6.614;2023-11-22T05:24:53;1.30;99.90
52127;DHT22;38120;53.176;6.614;2023-11-22T05:27:18;1.30;99.90
52127;DHT22;38120;53.176;6.614;2023-11-22T05:29:44;1.30;99.90
52127;DHT22;38120;53.176;6.614;2023-11-22T05:32:10;1.30;99.90
52127;DHT22;38120;53.176;6.614;2023-11-22T05:34:36;1.30;99.90
52127;DHT22;38120;53.176;6.614;2023-11-22T05:37:02;1.30;99.90
52127;DHT22;38120;53.176;6.614;2023-11-22T05:39:28;1.40;99.90
52127;DHT22;38120;53.176;6.614;2023-11-22T05:41:54;1.40;99.90
52127;DHT22;38120;53.176;6.614;2023-11-22T05:44:20;1.40;99.90
52127;DHT22;38120;53.176;6.614;2023-11-22T05:46:46;1.40;99.90
52127;DHT22;38120;53.176;6.614;2023-11-22T05:49:11;1.40;99.90
52127;DHT22;38120;53.176;6.614;2023-11-22T05:51:37;1.40;99.90
52127;DHT22;38120;53.176;6.614;2023-11-22T05:54:03;1.30;99.90
52127;DHT22;38120;53.176;6.614;2023-11-22T05:56:29;1.40;99.90
52127;DHT22;38120;53.176;6.614;2023-11-22T05:58:55;1.30;99.90
52127;DHT22;38120;53.176;6.614;2023-11-22T06:01:22;1.40;99.90
52127;DHT22;38120;53.176;6.614;2023-11-22T06:03:48;1.40;99.90
52127;DHT22;38120;53.176;6.614;2023-11-22T06:06:14;3.00;99.90
52127;DHT22;38120;53.176;6.614;2023-11-22T06:08:40;1.40;99.90
52127;DHT22;38120;53.176;6.614;2023-11-22T06:11:05;2.00;99.90
52127;DHT22;38120;53.176;6.614;2023-11-22T06:13:31;1.40;99.90
52127;DHT22;38120;53.176;6.614;2023-11-22T06:15:57;1.40;99.90
52127;DHT22;38120;53.176;6.614;2023-11-22T06:18:23;1.50;99.90
52127;DHT22;38120;53.176;6.614;2023-11-22T06:20:58;1.40;99.90
52127;DHT22;38120;53.176;6.614;2023-11-22T06:23:23;1.50;99.90
52127;DHT22;38120;53.176;6.614;2023-11-22T06:25:49;1.50;99.90
52127;DHT22;38120;53.176;6.614;2023-11-22T06:28:15;1.50;99.90
52127;DHT22;38120;53.176;6.614;2023-11-22T06:30:41;1.50;99.90
52127;DHT22;38120;53.176;6.614;2023-11-22T06:33:07;1.50;99.90
52127;DHT22;38120;53.176;6.614;2023-11-22T06:35:33;1.60;99.90
52127;DHT22;38120;53.176;6.614;2023-11-22T06:37:59;1.60;99.90
52127;DHT22;38120;53.176;6.614;2023-11-22T06:40:24;1.60;99.90
52127;DHT22;38120;53.176;6.614;2023-11-22T06:42:50;1.60;99.90
52127;DHT22;38120;53.176;6.614;2023-11-22T06:45:17;1.60;99.90
52127;DHT22;38120;53.176;6.614;2023-11-22T06:47:43;1.60;99.90
52127;DHT22;38120;53.176;6.614;2023-11-22T06:50:10;1.60;99.90
52127;DHT22;38120;53.176;6.614;2023-11-22T06:52:36;1.60;99.90
52127;DHT22;38120;53.176;6.614;2023-11-22T06:55:04;1.70;99.90
52127;DHT22;38120;53.176;6.614;2023-11-22T06:57:30;1.60;99.90
52127;DHT22;38120;53.176;6.614;2023-11-22T06:59:57;1.60;99.90
52127;DHT22;38120;53.176;6.614;2023-11-22T07:02:23;1.70;99.90
52127;DHT22;38120;53.176;6.614;2023-11-22T07:04:48;1.60;99.90
52127;DHT22;38120;53.176;6.614;2023-11-22T07:07:15;1.60;99.90
52127;DHT22;38120;53.176;6.614;2023-11-22T07:09:44;1.70;99.90
52127;DHT22;38120;53.176;6.614;2023-11-22T07:12:10;1.70;99.90
52127;DHT22;38120;53.176;6.614;2023-11-22T07:14:36;1.70;99.90
52127;DHT22;38120;53.176;6.614;2023-11-22T07:17:02;1.80;99.90
52127;DHT22;38120;53.176;6.614;2023-11-22T07:19:28;1.80;99.90
52127;DHT22;38120;53.176;6.614;2023-11-22T07:21:54;1.80;99.90
52127;DHT22;38120;53.176;6.614;2023-11-22T07:24:20;1.80;99.90
52127;DHT22;38120;53.176;6.614;2023-11-22T07:26:46;1.80;99.90
52127;DHT22;38120;53.176;6.614;2023-11-22T07:29:12;1.90;99.90
52127;DHT22;38120;53.176;6.614;2023-11-22T07:31:39;2.20;99.90
52127;DHT22;38120;53.176;6.614;2023-11-22T07:34:05;2.00;99.90
52127;DHT22;38120;53.176;6.614;2023-11-22T07:36:32;2.00;99.90
52127;DHT22;38120;53.176;6.614;2023-11-22T07:38:57;2.10;99.90
52127;DHT22;38120;53.176;6.614;2023-11-22T07:41:24;2.10;99.90
52127;DHT22;38120;53.176;6.614;2023-11-22T07:43:52;2.20;99.90
52127;DHT22;38120;53.176;6.614;2023-11-22T07:46:17;2.20;99.90
52127;DHT22;38120;53.176;6.614;2023-11-22T07:48:44;2.40;99.90
52127;DHT22;38120;53.176;6.614;2023-11-22T07:51:13;2.30;99.90
52127;DHT22;38120;53.176;6.614;2023-11-22T07:53:42;2.30;99.90
52127;DHT22;38120;53.176;6.614;2023-11-22T07:56:09;2.30;99.90
52127;DHT22;38120;53.176;6.614;2023-11-22T07:58:35;2.40;99.90
52127;DHT22;38120;53.176;6.614;2023-11-22T08:01:01;2.40;99.90
52127;DHT22;38120;53.176;6.614;2023-11-22T08:03:29;2.40;99.90
52127;DHT22;38120;53.176;6.614;2023-11-22T08:05:55;2.50;99.90
52127;DHT22;38120;53.176;6.614;2023-11-22T08:08:24;2.50;99.90
52127;DHT22;38120;53.176;6.614;2023-11-22T08:10:51;2.60;99.90
52127;DHT22;38120;53.176;6.614;2023-11-22T08:13:20;2.60;99.90
52127;DHT22;38120;53.176;6.614;2023-11-22T08:15:48;2.60;99.90
52127;DHT22;38120;53.176;6.614;2023-11-22T08:18:14;2.80;99.90
52127;DHT22;38120;53.176;6.614;2023-11-22T08:20:45;2.60;99.90
52127;DHT22;38120;53.176;6.614;2023-11-22T08:23:10;2.60;99.90
52127;DHT22;38120;53.176;6.614;2023-11-22T08:25:38;2.60;99.90
52127;DHT22;38120;53.176;6.614;2023-11-22T08:28:04;2.60;99.90
52127;DHT22;38120;53.176;6.614;2023-11-22T08:30:34;2.60;99.90
52127;DHT22;38120;53.176;6.614;2023-11-22T08:33:01;2.70;99.90
52127;DHT22;38120;53.176;6.614;2023-11-22T08:35:27;1.10;99.90
52127;DHT22;38120;53.176;6.614;2023-11-22T08:37:53;2.60;99.90
52127;DHT22;38120;53.176;6.614;2023-11-22T08:40:20;2.60;99.90
52127;DHT22;38120;53.176;6.614;2023-11-22T08:42:49;2.60;99.90
52127;DHT22;38120;53.176;6.614;2023-11-22T08:45:15;2.60;99.90
52127;DHT22;38120;53.176;6.614;2023-11-22T08:47:41;2.70;99.90
52127;DHT22;38120;53.176;6.614;2023-11-22T08:50:08;2.80;99.90
52127;DHT22;38120;53.176;6.614;2023-11-22T08:52:36;2.80;99.90
52127;DHT22;38120;53.176;6.614;2023-11-22T08:55:04;2.80;99.90
52127;DHT22;38120;53.176;6.614;2023-11-22T08:57:39;2.80;99.90
52127;DHT22;38120;53.176;6.614;2023-11-22T09:00:09;2.80;99.90
52127;DHT22;38120;53.176;6.614;2023-11-22T09:02:37;2.90;99.90
52127;DHT22;38120;53.176;6.614;2023-11-22T09:05:04;2.90;99.90
52127;DHT22;38120;53.176;6.614;2023-11-22T09:07:32;2.90;99.90
52127;DHT22;38120;53.176;6.614;2023-11-22T09:09:58;3.80;99.90
52127;DHT22;38120;53.176;6.614;2023-11-22T09:12:24;2.90;99.90
52127;DHT22;38120;53.176;6.614;2023-11-22T09:14:52;2.90;99.90
52127;DHT22;38120;53.176;6.614;2023-11-22T09:17:18;2.90;99.90
52127;DHT22;38120;53.176;6.614;2023-11-22T09:19:46;2.90;99.90
52127;DHT22;38120;53.176;6.614;2023-11-22T09:22:11;2.90;99.90
52127;DHT22;38120;53.176;6.614;2023-11-22T09:24:38;3.00;99.90
52127;DHT22;38120;53.176;6.614;2023-11-22T09:27:04;3.10;99.90
52127;DHT22;38120;53.176;6.614;2023-11-22T09:29:35;3.10;99.90
52127;DHT22;38120;53.176;6.614;2023-11-22T09:32:01;3.10;99.90
52127;DHT22;38120;53.176;6.614;2023-11-22T09:34:28;3.30;99.90
52127;DHT22;38120;53.176;6.614;2023-11-22T09:36:55;3.10;99.90
52127;DHT22;38120;53.176;6.614;2023-11-22T09:39:20;3.20;99.90
52127;DHT22;38120;53.176;6.614;2023-11-22T09:41:47;3.30;99.90
52127;DHT22;38120;53.176;6.614;2023-11-22T09:44:14;3.30;99.90
52127;DHT22;38120;53.176;6.614;2023-11-22T09:46:42;3.30;99.90
52127;DHT22;38120;53.176;6.614;2023-11-22T09:49:08;3.40;99.90
52127;DHT22;38120;53.176;6.614;2023-11-22T09:51:37;3.40;99.90
52127;DHT22;38120;53.176;6.614;2023-11-22T09:54:08;3.40;99.90
52127;DHT22;38120;53.176;6.614;2023-11-22T09:56:37;3.50;99.90
52127;DHT22;38120;53.176;6.614;2023-11-22T09:59:04;3.60;99.90
52127;DHT22;38120;53.176;6.614;2023-11-22T10:01:33;3.50;99.90
52127;DHT22;38120;53.176;6.614;2023-11-22T10:04:02;3.60;99.90
52127;DHT22;38120;53.176;6.614;2023-11-22T10:06:31;3.70;99.90
52127;DHT22;38120;53.176;6.614;2023-11-22T10:09:03;3.70;99.90
52127;DHT22;38120;53.176;6.614;2023-11-22T10:11:35;3.80;99.90
52127;DHT22;38120;53.176;6.614;2023-11-22T10:14:05;4.00;99.90
52127;DHT22;38120;53.176;6.614;2023-11-22T10:16:31;3.80;99.90
52127;DHT22;38120;53.176;6.614;2023-11-22T10:18:57;3.90;99.90
52127;DHT22;38120;53.176;6.614;2023-11-22T10:21:24;4.00;99.90
52127;DHT22;38120;53.176;6.614;2023-11-22T10:23:56;4.00;99.90
52127;DHT22;38120;53.176;6.614;2023-11-22T10:26:22;4.00;99.90
52127;DHT22;38120;53.176;6.614;2023-11-22T10:28:55;4.10;99.90
52127;DHT22;38120;53.176;6.614;2023-11-22T10:31:22;4.10;99.90
52127;DHT22;38120;53.176;6.614;2023-11-22T10:33:48;4.30;99.90
52127;DHT22;38120;53.176;6.614;2023-11-22T10:36:15;4.20;99.90
52127;DHT22;38120;53.176;6.614;2023-11-22T10:38:45;4.20;99.90
52127;DHT22;38120;53.176;6.614;2023-11-22T10:41:11;4.20;99.90
52127;DHT22;38120;53.176;6.614;2023-11-22T10:43:39;4.30;99.90
52127;DHT22;38120;53.176;6.614;2023-11-22T10:46:07;4.40;99.90
52127;DHT22;38120;53.176;6.614;2023-11-22T10:48:35;4.40;99.90
52127;DHT22;38120;53.176;6.614;2023-11-22T10:51:03;4.50;99.90
52127;DHT22;38120;53.176;6.614;2023-11-22T10:53:36;4.40;99.90
52127;DHT22;38120;53.176;6.614;2023-11-22T10:56:15;4.40;99.90
52127;DHT22;38120;53.176;6.614;2023-11-22T10:58:49;4.30;99.90
52127;DHT22;38120;53.176;6.614;2023-11-22T11:01:16;4.30;99.90
52127;DHT22;38120;53.176;6.614;2023-11-22T11:03:46;4.30;99.90
52127;DHT22;38120;53.176;6.614;2023-11-22T11:06:20;4.30;99.90
52127;DHT22;38120;53.176;6.614;2023-11-22T11:08:47;4.30;99.90
52127;DHT22;38120;53.176;6.614;2023-11-22T11:11:14;4.40;99.90
52127;DHT22;38120;53.176;6.614;2023-11-22T11:13:40;4.50;99.90
52127;DHT22;38120;53.176;6.614;2023-11-22T11:16:07;4.60;99.90
52127;DHT22;38120;53.176;6.614;2023-11-22T11:18:33;4.60;99.90
52127;DHT22;38120;53.176;6.614;2023-11-22T11:21:07;4.60;99.90
52127;DHT22;38120;53.176;6.614;2023-11-22T11:23:33;4.70;99.90
52127;DHT22;38120;53.176;6.614;2023-11-22T11:26:09;4.70;99.90
52127;DHT22;38120;53.176;6.614;2023-11-22T11:28:43;4.80;99.90
52127;DHT22;38120;53.176;6.614;2023-11-22T11:31:09;4.90;99.90
52127;DHT22;38120;53.176;6.614;2023-11-22T11:33:53;5.00;99.90
52127;DHT22;38120;53.176;6.614;2023-11-22T11:36:30;5.00;99.90
52127;DHT22;38120;53.176;6.614;2023-11-22T11:39:00;5.10;99.90
52127;DHT22;38120;53.176;6.614;2023-11-22T11:41:33;5.10;99.90
52127;DHT22;38120;53.176;6.614;2023-11-22T11:44:01;5.20;99.90
52127;DHT22;38120;53.176;6.614;2023-11-22T11:46:27;5.20;99.90
52127;DHT22;38120;53.176;6.614;2023-11-22T11:48:55;5.20;99.90
52127;DHT22;38120;53.176;6.614;2023-11-22T11:51:24;5.30;99.90
52127;DHT22;38120;53.176;6.614;2023-11-22T11:53:51;5.20;99.90
52127;DHT22;38120;53.176;6.614;2023-11-22T11:56:18;5.30;99.90
52127;DHT22;38120;53.176;6.614;2023-11-22T11:58:45;5.20;99.90
52127;DHT22;38120;53.176;6.614;2023-11-22T12:01:18;5.50;99.90
52127;DHT22;38120;53.176;6.614;2023-11-22T12:03:48;5.30;99.90
52127;DHT22;38120;53.176;6.614;2023-11-22T12:06:15;5.30;99.90
52127;DHT22;38120;53.176;6.614;2023-11-22T12:08:42;5.30;99.90
52127;DHT22;38120;53.176;6.614;2023-11-22T12:11:07;5.20;99.90
52127;DHT22;38120;53.176;6.614;2023-11-22T12:13:34;5.10;99.90
52127;DHT22;38120;53.176;6.614;2023-11-22T12:16:02;5.10;99.90
52127;DHT22;38120;53.176;6.614;2023-11-22T12:18:54;5.60;99.90
52127;DHT22;38120;53.176;6.614;2023-11-22T12:21:20;5.10;99.90
52127;DHT22;38120;53.176;6.614;2023-11-22T12:23:47;5.00;99.90
52127;DHT22;38120;53.176;6.614;2023-11-22T12:26:15;5.00;99.90
52127;DHT22;38120;53.176;6.614;2023-11-22T12:28:42;5.00;99.90
52127;DHT22;38120;53.176;6.614;2023-11-22T12:31:12;5.00;99.90
52127;DHT22;38120;53.176;6.614;2023-11-22T12:33:39;5.00;99.90
52127;DHT22;38120;53.176;6.614;2023-11-22T12:36:06;5.00;99.90
52127;DHT22;38120;53.176;6.614;2023-11-22T12:38:34;5.00;99.90
52127;DHT22;38120;53.176;6.614;2023-11-22T12:40:59;5.10;99.90
52127;DHT22;38120;53.176;6.614;2023-11-22T12:43:27;5.20;99.90
52127;DHT22;38120;53.176;6.614;2023-11-22T12:46:03;4.90;99.90
52127;DHT22;38120;53.176;6.614;2023-11-22T12:48:29;4.90;99.90
52127;DHT22;38120;53.176;6.614;2023-11-22T12:50:56;4.90;99.90
52127;DHT22;38120;53.176;6.614;2023-11-22T12:53:23;4.90;99.90
52127;DHT22;38120;53.176;6.614;2023-11-22T12:55:52;4.90;99.90
52127;DHT22;38120;53.176;6.614;2023-11-22T12:58:18;5.00;99.90
52127;DHT22;38120;53.176;6.614;2023-11-22T13:00:46;5.00;99.90
52127;DHT22;38120;53.176;6.614;2023-11-22T13:03:12;5.00;99.90
52127;DHT22;38120;53.176;6.614;2023-11-22T13:05:39;5.00;88.30
52127;DHT22;38120;53.176;6.614;2023-11-22T13:08:05;5.00;99.20
52127;DHT22;38120;53.176;6.614;2023-11-22T13:10:31;5.00;99.90
52127;DHT22;38120;53.176;6.614;2023-11-22T13:12:57;5.00;99.90
52127;DHT22;38120;53.176;6.614;2023-11-22T13:15:23;5.00;99.90
52127;DHT22;38120;53.176;6.614;2023-11-22T13:17:54;5.00;99.90
52127;DHT22;38120;53.176;6.614;2023-11-22T13:20:27;5.00;99.90
52127;DHT22;38120;53.176;6.614;2023-11-22T13:22:54;5.00;99.90
52127;DHT22;38120;53.176;6.614;2023-11-22T13:25:23;5.00;99.90
52127;DHT22;38120;53.176;6.614;2023-11-22T13:27:52;5.00;99.90
52127;DHT22;38120;53.176;6.614;2023-11-22T13:30:20;5.00;99.90
52127;DHT22;38120;53.176;6.614;2023-11-22T13:32:52;4.90;99.90
52127;DHT22;38120;53.176;6.614;2023-11-22T13:35:19;4.90;99.90
52127;DHT22;38120;53.176;6.614;2023-11-22T13:37:46;4.90;99.90
52127;DHT22;38120;53.176;6.614;2023-11-22T13:40:18;4.90;99.90
52127;DHT22;38120;53.176;6.614;2023-11-22T13:42:48;4.90;99.90
52127;DHT22;38120;53.176;6.614;2023-11-22T13:45:16;4.80;99.90
52127;DHT22;38120;53.176;6.614;2023-11-22T13:47:46;4.80;99.90
52127;DHT22;38120;53.176;6.614;2023-11-22T13:50:14;5.20;99.90
52127;DHT22;38120;53.176;6.614;2023-11-22T13:52:44;4.90;99.90
52127;DHT22;38120;53.176;6.614;2023-11-22T13:55:11;4.80;99.90
52127;DHT22;38120;53.176;6.614;2023-11-22T13:57:38;4.90;99.90
52127;DHT22;38120;53.176;6.614;2023-11-22T14:00:05;4.80;99.90
52127;DHT22;38120;53.176;6.614;2023-11-22T14:02:35;4.80;99.90
52127;DHT22;38120;53.176;6.614;2023-11-22T14:05:02;4.80;99.90
52127;DHT22;38120;53.176;6.614;2023-11-22T14:07:34;4.80;99.90
52127;DHT22;38120;53.176;6.614;2023-11-22T14:10:00;4.70;99.90
52127;DHT22;38120;53.176;6.614;2023-11-22T14:12:29;4.70;99.90
52127;DHT22;38120;53.176;6.614;2023-11-22T14:14:55;4.70;99.90
52127;DHT22;38120;53.176;6.614;2023-11-22T14:17:21;4.70;99.90
52127;DHT22;38120;53.176;6.614;2023-11-22T14:19:47;4.70;99.90
52127;DHT22;38120;53.176;6.614;2023-11-22T14:22:13;4.70;99.90
52127;DHT22;38120;53.176;6.614;2023-11-22T14:24:42;4.70;99.90
52127;DHT22;38120;53.176;6.614;2023-11-22T14:27:11;5.20;99.90
52127;DHT22;38120;53.176;6.614;2023-11-22T14:29:37;4.70;99.90
52127;DHT22;38120;53.176;6.614;2023-11-22T14:32:04;4.70;99.90
52127;DHT22;38120;53.176;6.614;2023-11-22T14:34:29;4.60;99.90
52127;DHT22;38120;53.176;6.614;2023-11-22T14:36:55;4.70;99.90
52127;DHT22;38120;53.176;6.614;2023-11-22T14:39:21;4.60;99.90
52127;DHT22;38120;53.176;6.614;2023-11-22T14:41:47;4.70;99.90
52127;DHT22;38120;53.176;6.614;2023-11-22T14:44:13;4.60;99.90
52127;DHT22;38120;53.176;6.614;2023-11-22T14:46:39;4.60;99.90
52127;DHT22;38120;53.176;6.614;2023-11-22T14:49:05;4.70;99.90
52127;DHT22;38120;53.176;6.614;2023-11-22T14:51:31;4.60;99.90
52127;DHT22;38120;53.176;6.614;2023-11-22T14:53:59;4.60;99.90
52127;DHT22;38120;53.176;6.614;2023-11-22T14:56:25;4.60;99.90
52127;DHT22;38120;53.176;6.614;2023-11-22T14:58:50;4.60;99.90
52127;DHT22;38120;53.176;6.614;2023-11-22T15:01:20;4.70;99.90
52127;DHT22;38120;53.176;6.614;2023-11-22T15:03:47;4.60;99.90
52127;DHT22;38120;53.176;6.614;2023-11-22T15:06:15;4.70;99.90
52127;DHT22;38120;53.176;6.614;2023-11-22T15:08:40;4.60;99.90
52127;DHT22;38120;53.176;6.614;2023-11-22T15:11:07;4.60;99.90
52127;DHT22;38120;53.176;6.614;2023-11-22T15:13:34;4.60;99.90
52127;DHT22;38120;53.176;6.614;2023-11-22T15:16:01;4.70;99.90
52127;DHT22;38120;53.176;6.614;2023-11-22T15:18:27;4.70;99.90
52127;DHT22;38120;53.176;6.614;2023-11-22T15:20:53;4.80;99.90
52127;DHT22;38120;53.176;6.614;2023-11-22T15:23:19;4.70;99.90
52127;DHT22;38120;53.176;6.614;2023-11-22T15:25:47;4.60;99.90
52127;DHT22;38120;53.176;6.614;2023-11-22T15:28:13;4.70;99.90
52127;DHT22;38120;53.176;6.614;2023-11-22T15:30:49;4.70;99.90
52127;DHT22;38120;53.176;6.614;2023-11-22T15:33:15;4.70;99.90
52127;DHT22;38120;53.176;6.614;2023-11-22T15:35:41;4.70;99.90
52127;DHT22;38120;53.176;6.614;2023-11-22T15:38:07;4.70;99.90
52127;DHT22;38120;53.176;6.614;2023-11-22T15:40:33;4.70;99.90
52127;DHT22;38120;53.176;6.614;2023-11-22T15:42:58;4.80;99.90